sensor_id;sensor_type;location;lat;lon;timestamp;pressure;altitude;pressure_sealevel;temperature;humidity
36964;BME280;22878;48.616;35.326;2023-11-19T08:38:24;100802.46;;;2.14;100.00
36964;BME280;22878;48.616;35.326;2023-11-19T08:44:13;100782.41;;;2.41;100.00
36964;BME280;22878;48.616;35.326;2023-11-19T08:50:07;100770.86;;;2.51;100.00
36964;BME280;22878;48.616;35.326;2023-11-19T08:52:33;100774.10;;;2.55;100.00
36964;BME280;22878;48.616;35.326;2023-11-19T08:55:00;100761.59;;;2.61;100.00
36964;BME280;22878;48.616;35.326;2023-11-19T08:57:25;100751.32;;;2.67;100.00
36964;BME280;22878;48.616;35.326;2023-11-19T08:59:51;100737.94;;;2.68;100.00
36964;BME280;22878;48.616;35.326;2023-11-19T09:05:39;100717.23;;;2.69;100.00
36964;BME280;22878;48.616;35.326;2023-11-19T09:08:04;100708.92;;;2.74;100.00
36964;BME280;22878;48.616;35.326;2023-11-19T09:10:30;100704.29;;;2.74;100.00
36964;BME280;22878;48.616;35.326;2023-11-19T09:12:58;100698.36;;;2.72;100.00
36964;BME280;22878;48.616;35.326;2023-11-19T09:15:24;100694.02;;;2.74;100.00
36964;BME280;22878;48.616;35.326;2023-11-19T09:17:49;100688.82;;;2.70;100.00
36964;BME280;22878;48.616;35.326;2023-11-19T09:23:37;100680.61;;;2.72;100.00
36964;BME280;22878;48.616;35.326;2023-11-19T09:26:10;100685.29;;;2.74;100.00
36964;BME280;22878;48.616;35.326;2023-11-19T09:28:36;100682.23;;;2.77;100.00
36964;BME280;22878;48.616;35.326;2023-11-19T09:31:02;100681.77;;;2.73;100.00
36964;BME280;22878;48.616;35.326;2023-11-19T09:36:52;100671.45;;;2.77;100.00
36964;BME280;22878;48.616;35.326;2023-11-19T09:43:13;100659.39;;;2.90;100.00
36964;BME280;22878;48.616;35.326;2023-11-19T09:45:48;100658.66;;;2.91;100.00
36964;BME280;22878;48.616;35.326;2023-11-19T09:48:18;100647.88;;;2.95;100.00
36964;BME280;22878;48.616;35.326;2023-11-19T09:50:47;100648.46;;;2.91;100.00
36964;BME280;22878;48.616;35.326;2023-11-19T09:53:14;100645.55;;;2.90;100.00
36964;BME280;22878;48.616;35.326;2023-11-19T09:55:46;100641.18;;;2.89;100.00
36964;BME280;22878;48.616;35.326;2023-11-19T09:58:15;100642.64;;;2.89;100.00
36964;BME280;22878;48.616;35.326;2023-11-19T10:00:58;100638.81;;;2.89;100.00
36964;BME280;22878;48.616;35.326;2023-11-19T10:03:34;100632.41;;;2.89;100.00
36964;BME280;22878;48.616;35.326;2023-11-19T10:09:28;100634.37;;;2.92;100.00
36964;BME280;22878;48.616;35.326;2023-11-19T10:12:00;100634.45;;;2.96;100.00
36964;BME280;22878;48.616;35.326;2023-11-19T10:21:14;100620.45;;;2.93;100.00
36964;BME280;22878;48.616;35.326;2023-11-19T10:23:52;100613.73;;;2.92;100.00
36964;BME280;22878;48.616;35.326;2023-11-19T10:26:22;100613.92;;;2.94;100.00
36964;BME280;22878;48.616;35.326;2023-11-19T10:28:48;100606.20;;;2.95;100.00
36964;BME280;22878;48.616;35.326;2023-11-19T10:31:18;100600.17;;;2.96;100.00
36964;BME280;22878;48.616;35.326;2023-11-19T10:33:45;100604.08;;;2.95;100.00
36964;BME280;22878;48.616;35.326;2023-11-19T10:36:14;100596.86;;;2.93;100.00
36964;BME280;22878;48.616;35.326;2023-11-19T10:38:53;100586.13;;;2.96;100.00
36964;BME280;22878;48.616;35.326;2023-11-19T10:41:32;100579.95;;;3.00;100.00
36964;BME280;22878;48.616;35.326;2023-11-19T10:44:01;100574.73;;;3.02;100.00
36964;BME280;22878;48.616;35.326;2023-11-19T10:46:42;100569.36;;;3.04;100.00
36964;BME280;22878;48.616;35.326;2023-11-19T10:49:09;100569.80;;;3.06;100.00
36964;BME280;22878;48.616;35.326;2023-11-19T10:51:36;100563.08;;;3.04;100.00
36964;BME280;22878;48.616;35.326;2023-11-19T10:54:05;100560.86;;;3.07;100.00
36964;BME280;22878;48.616;35.326;2023-11-19T10:56:32;100551.46;;;3.09;100.00
36964;BME280;22878;48.616;35.326;2023-11-19T10:59:02;100544.54;;;3.11;100.00
36964;BME280;22878;48.616;35.326;2023-11-19T11:04:51;100525.89;;;3.16;100.00
36964;BME280;22878;48.616;35.326;2023-11-19T11:07:21;100519.58;;;3.17;100.00
36964;BME280;22878;48.616;35.326;2023-11-19T11:09:51;100518.14;;;3.17;100.00
36964;BME280;22878;48.616;35.326;2023-11-19T11:12:21;100514.23;;;3.18;100.00
36964;BME280;22878;48.616;35.326;2023-11-19T11:14:49;100504.02;;;3.22;100.00
36964;BME280;22878;48.616;35.326;2023-11-19T11:17:17;100504.06;;;3.29;100.00
36964;BME280;22878;48.616;35.326;2023-11-19T11:19:43;100501.85;;;3.30;100.00
36964;BME280;22878;48.616;35.326;2023-11-19T11:22:10;100496.82;;;3.28;100.00
36964;BME280;22878;48.616;35.326;2023-11-19T11:33:24;100462.65;;;3.39;100.00
36964;BME280;22878;48.616;35.326;2023-11-19T11:38:41;100439.30;;;3.44;100.00
36964;BME280;22878;48.616;35.326;2023-11-19T11:41:19;100432.82;;;3.50;100.00
36964;BME280;22878;48.616;35.326;2023-11-19T11:43:49;100430.71;;;3.52;100.00
36964;BME280;22878;48.616;35.326;2023-11-19T11:49:01;100430.61;;;3.56;100.00
36964;BME280;22878;48.616;35.326;2023-11-19T11:57:03;100408.27;;;3.65;100.00
36964;BME280;22878;48.616;35.326;2023-11-19T12:05:29;100390.05;;;3.70;100.00
36964;BME280;22878;48.616;35.326;2023-11-19T12:08:04;100382.73;;;3.68;100.00
36964;BME280;22878;48.616;35.326;2023-11-19T12:10:54;100385.98;;;3.69;100.00
36964;BME280;22878;48.616;35.326;2023-11-19T12:13:19;100391.73;;;3.68;100.00
36964;BME280;22878;48.616;35.326;2023-11-19T12:19:08;100374.95;;;3.76;100.00
36964;BME280;22878;48.616;35.326;2023-11-19T12:24:56;100381.42;;;3.81;100.00
36964;BME280;22878;48.616;35.326;2023-11-19T12:27:24;100380.34;;;3.82;100.00
36964;BME280;22878;48.616;35.326;2023-11-19T12:36:34;100385.38;;;3.83;100.00
36964;BME280;22878;48.616;35.326;2023-11-19T12:42:42;100396.20;;;3.76;100.00
36964;BME280;22878;48.616;35.326;2023-11-19T12:45:07;100396.06;;;3.68;100.00
36964;BME280;22878;48.616;35.326;2023-11-19T12:47:37;100408.50;;;3.66;100.00
36964;BME280;22878;48.616;35.326;2023-11-19T12:50:02;100401.34;;;3.65;100.00
36964;BME280;22878;48.616;35.326;2023-11-19T12:52:29;100401.21;;;3.66;100.00
36964;BME280;22878;48.616;35.326;2023-11-19T12:54:55;100396.61;;;3.66;100.00
36964;BME280;22878;48.616;35.326;2023-11-19T12:57:37;100407.23;;;3.64;100.00
36964;BME280;22878;48.616;35.326;2023-11-19T13:00:04;100400.06;;;3.61;100.00
36964;BME280;22878;48.616;35.326;2023-11-19T13:02:50;100405.02;;;3.65;100.00
36964;BME280;22878;48.616;35.326;2023-11-19T13:05:23;100409.15;;;3.62;100.00
36964;BME280;22878;48.616;35.326;2023-11-19T13:07:49;100410.75;;;3.59;100.00
36964;BME280;22878;48.616;35.326;2023-11-19T13:10:15;100408.15;;;3.54;100.00
36964;BME280;22878;48.616;35.326;2023-11-19T13:12:41;100408.42;;;3.56;100.00
36964;BME280;22878;48.616;35.326;2023-11-19T13:15:06;100410.91;;;3.52;100.00
36964;BME280;22878;48.616;35.326;2023-11-19T13:17:47;100410.89;;;3.45;100.00
36964;BME280;22878;48.616;35.326;2023-11-19T13:20:13;100410.71;;;3.41;100.00
36964;BME280;22878;48.616;35.326;2023-11-19T13:22:58;100407.16;;;3.41;100.00
36964;BME280;22878;48.616;35.326;2023-11-19T13:25:25;100413.86;;;3.38;100.00
36964;BME280;22878;48.616;35.326;2023-11-19T13:27:51;100414.98;;;3.35;100.00
36964;BME280;22878;48.616;35.326;2023-11-19T13:30:17;100411.95;;;3.29;100.00
36964;BME280;22878;48.616;35.326;2023-11-19T13:32:42;100411.91;;;3.24;100.00
36964;BME280;22878;48.616;35.326;2023-11-19T13:35:12;100405.33;;;3.18;100.00
36964;BME280;22878;48.616;35.326;2023-11-19T13:37:38;100399.42;;;3.13;100.00
36964;BME280;22878;48.616;35.326;2023-11-19T13:40:06;100399.05;;;3.11;100.00
36964;BME280;22878;48.616;35.326;2023-11-19T13:42:56;100399.93;;;3.08;100.00
36964;BME280;22878;48.616;35.326;2023-11-19T13:45:22;100409.64;;;3.02;100.00
36964;BME280;22878;48.616;35.326;2023-11-19T13:51:08;100405.46;;;2.88;100.00
36964;BME280;22878;48.616;35.326;2023-11-19T13:53:35;100399.58;;;2.82;100.00
36964;BME280;22878;48.616;35.326;2023-11-19T14:02:45;100392.41;;;2.67;100.00
36964;BME280;22878;48.616;35.326;2023-11-19T14:05:12;100391.87;;;2.60;100.00
36964;BME280;22878;48.616;35.326;2023-11-19T14:07:39;100389.30;;;2.55;100.00
36964;BME280;22878;48.616;35.326;2023-11-19T14:13:27;100392.85;;;2.32;100.00
36964;BME280;22878;48.616;35.326;2023-11-19T14:15:52;100389.27;;;2.26;100.00
36964;BME280;22878;48.616;35.326;2023-11-19T14:18:18;100384.02;;;2.19;100.00
36964;BME280;22878;48.616;35.326;2023-11-19T14:20:44;100388.33;;;2.15;100.00
36964;BME280;22878;48.616;35.326;2023-11-19T14:23:09;100388.48;;;2.06;100.00
36964;BME280;22878;48.616;35.326;2023-11-19T14:25:35;100383.66;;;2.01;100.00
36964;BME280;22878;48.616;35.326;2023-11-19T14:28:00;100383.99;;;1.97;100.00
36964;BME280;22878;48.616;35.326;2023-11-19T14:30:26;100382.86;;;1.94;100.00
36964;BME280;22878;48.616;35.326;2023-11-19T14:32:52;100384.92;;;1.91;100.00
36964;BME280;22878;48.616;35.326;2023-11-19T14:35:19;100376.34;;;1.89;100.00
36964;BME280;22878;48.616;35.326;2023-11-19T14:41:07;100386.02;;;1.87;100.00
36964;BME280;22878;48.616;35.326;2023-11-19T14:43:32;100389.17;;;1.83;100.00
36964;BME280;22878;48.616;35.326;2023-11-19T14:45:58;100384.57;;;1.81;100.00
36964;BME280;22878;48.616;35.326;2023-11-19T14:48:23;100381.95;;;1.74;100.00
36964;BME280;22878;48.616;35.326;2023-11-19T14:50:49;100378.86;;;1.70;100.00
36964;BME280;22878;48.616;35.326;2023-11-19T14:56:42;100376.57;;;1.65;100.00
36964;BME280;22878;48.616;35.326;2023-11-19T15:03:10;100369.69;;;1.61;100.00
36964;BME280;22878;48.616;35.326;2023-11-19T15:13:19;100357.06;;;1.57;100.00
36964;BME280;22878;48.616;35.326;2023-11-19T15:16:41;100347.83;;;1.52;100.00
36964;BME280;22878;48.616;35.326;2023-11-19T16:05:10;100308.00;;;1.36;100.00
36964;BME280;22878;48.616;35.326;2023-11-19T16:24:59;100333.77;;;1.22;100.00
36964;BME280;22878;48.616;35.326;2023-11-19T16:27:24;100329.24;;;1.18;100.00
36964;BME280;22878;48.616;35.326;2023-11-19T16:29:56;100325.77;;;1.13;100.00
36964;BME280;22878;48.616;35.326;2023-11-19T16:43:46;100316.52;;;1.29;100.00
36964;BME280;22878;48.616;35.326;2023-11-19T16:46:13;100311.89;;;1.26;100.00
36964;BME280;22878;48.616;35.326;2023-11-19T16:48:39;100311.77;;;1.22;100.00
36964;BME280;22878;48.616;35.326;2023-11-19T16:51:21;100311.29;;;1.14;100.00
36964;BME280;22878;48.616;35.326;2023-11-19T16:53:48;100300.86;;;1.09;100.00
36964;BME280;22878;48.616;35.326;2023-11-19T16:56:15;100300.59;;;1.03;100.00
36964;BME280;22878;48.616;35.326;2023-11-19T16:58:42;100292.98;;;1.01;100.00
36964;BME280;22878;48.616;35.326;2023-11-19T17:01:09;100290.64;;;0.97;100.00
36964;BME280;22878;48.616;35.326;2023-11-19T17:03:38;100286.38;;;0.94;100.00
36964;BME280;22878;48.616;35.326;2023-11-19T17:06:22;100285.65;;;0.91;100.00
36964;BME280;22878;48.616;35.326;2023-11-19T17:08:48;100284.13;;;0.87;100.00
36964;BME280;22878;48.616;35.326;2023-11-19T17:11:14;100275.52;;;0.83;100.00
36964;BME280;22878;48.616;35.326;2023-11-19T17:13:57;100276.41;;;0.81;100.00
36964;BME280;22878;48.616;35.326;2023-11-19T17:16:25;100272.09;;;0.78;100.00
36964;BME280;22878;48.616;35.326;2023-11-19T17:18:50;100270.09;;;0.76;100.00
36964;BME280;22878;48.616;35.326;2023-11-19T17:21:16;100270.41;;;0.72;100.00
36964;BME280;22878;48.616;35.326;2023-11-19T17:27:17;100268.57;;;0.66;100.00
36964;BME280;22878;48.616;35.326;2023-11-19T17:30:01;100262.86;;;0.66;100.00
36964;BME280;22878;48.616;35.326;2023-11-19T17:32:30;100261.23;;;0.61;100.00
36964;BME280;22878;48.616;35.326;2023-11-19T17:39:00;100248.00;;;0.58;100.00
36964;BME280;22878;48.616;35.326;2023-11-19T17:45:09;100242.87;;;0.56;100.00
36964;BME280;22878;48.616;35.326;2023-11-19T17:47:35;100245.29;;;0.56;100.00
36964;BME280;22878;48.616;35.326;2023-11-19T17:50:03;100238.99;;;0.57;100.00
36964;BME280;22878;48.616;35.326;2023-11-19T18:14:15;100204.30;;;0.57;100.00
36964;BME280;22878;48.616;35.326;2023-11-19T20:49:41;100023.85;;;0.57;100.00
36964;BME280;22878;48.616;35.326;2023-11-19T20:55:30;100011.38;;;0.58;100.00
36964;BME280;22878;48.616;35.326;2023-11-19T20:58:06;100015.13;;;0.57;100.00
36964;BME280;22878;48.616;35.326;2023-11-19T21:21:33;99970.62;;;0.70;100.00
36964;BME280;22878;48.616;35.326;2023-11-19T21:24:15;99967.73;;;0.70;100.00
36964;BME280;22878;48.616;35.326;2023-11-19T21:26:53;99962.76;;;0.66;100.00
36964;BME280;22878;48.616;35.326;2023-11-19T21:33:08;99956.95;;;0.59;100.00
36964;BME280;22878;48.616;35.326;2023-11-19T21:38:40;99947.94;;;0.60;100.00
36964;BME280;22878;48.616;35.326;2023-11-19T21:41:06;99946.92;;;0.59;100.00
36964;BME280;22878;48.616;35.326;2023-11-19T21:43:32;99945.91;;;0.59;100.00
36964;BME280;22878;48.616;35.326;2023-11-19T21:45:58;99946.64;;;0.57;100.00
36964;BME280;22878;48.616;35.326;2023-11-19T21:48:28;99948.52;;;0.55;100.00
36964;BME280;22878;48.616;35.326;2023-11-19T21:50:53;99946.65;;;0.55;100.00
36964;BME280;22878;48.616;35.326;2023-11-19T21:53:21;99952.48;;;0.54;100.00
36964;BME280;22878;48.616;35.326;2023-11-19T21:55:47;99954.77;;;0.56;100.00
36964;BME280;22878;48.616;35.326;2023-11-19T21:58:33;99952.30;;;0.58;100.00
36964;BME280;22878;48.616;35.326;2023-11-19T22:00:59;99957.08;;;0.61;100.00
36964;BME280;22878;48.616;35.326;2023-11-19T22:03:26;99954.51;;;0.60;100.00
36964;BME280;22878;48.616;35.326;2023-11-19T22:09:32;99954.80;;;0.65;100.00
36964;BME280;22878;48.616;35.326;2023-11-19T22:14:37;99951.67;;;0.64;100.00
36964;BME280;22878;48.616;35.326;2023-11-19T22:17:21;99954.98;;;0.62;100.00
36964;BME280;22878;48.616;35.326;2023-11-19T22:25:36;99949.43;;;0.64;100.00
36964;BME280;22878;48.616;35.326;2023-11-19T22:28:42;99948.95;;;0.62;100.00
36964;BME280;22878;48.616;35.326;2023-11-19T22:31:13;99948.59;;;0.60;100.00
36964;BME280;22878;48.616;35.326;2023-11-19T22:37:01;99945.65;;;0.60;100.00
36964;BME280;22878;48.616;35.326;2023-11-19T22:39:47;99945.09;;;0.61;100.00
36964;BME280;22878;48.616;35.326;2023-11-19T22:43:12;99935.04;;;0.60;100.00
36964;BME280;22878;48.616;35.326;2023-11-19T22:48:40;99933.71;;;0.60;100.00
36964;BME280;22878;48.616;35.326;2023-11-19T22:51:39;99924.89;;;0.61;100.00
36964;BME280;22878;48.616;35.326;2023-11-19T22:55:11;99918.48;;;0.61;100.00
36964;BME280;22878;48.616;35.326;2023-11-19T22:58:17;99909.18;;;0.61;100.00
36964;BME280;22878;48.616;35.326;2023-11-19T23:01:30;99901.48;;;0.59;100.00
36964;BME280;22878;48.616;35.326;2023-11-19T23:04:12;99891.11;;;0.62;100.00
36964;BME280;22878;48.616;35.326;2023-11-19T23:20:02;99876.17;;;0.66;100.00
36964;BME280;22878;48.616;35.326;2023-11-19T23:23:09;99874.59;;;0.64;100.00
36964;BME280;22878;48.616;35.326;2023-11-19T23:26:15;99874.46;;;0.65;100.00
36964;BME280;22878;48.616;35.326;2023-11-19T23:50:37;99859.92;;;0.62;100.00
36964;BME280;22878;48.616;35.326;2023-11-19T23:56:41;99858.73;;;0.60;100.00
36964;BME280;22878;48.616;35.326;2023-11-19T23:59:50;99856.02;;;0.57;100.00
